createdAt,value
2019-06-07T00:01:20.768Z,15.64
2019-06-07T00:03:49.208Z,15.61
2019-06-07T00:06:24.388Z,15.58
2019-06-07T00:08:48.176Z,15.59
2019-06-07T00:11:20.013Z,15.61
2019-06-07T00:13:47.030Z,15.58
2019-06-07T00:16:20.879Z,15.55
2019-06-07T00:18:45.996Z,15.56
2019-06-07T00:21:17.021Z,15.59
2019-06-07T00:23:44.904Z,15.61
2019-06-07T00:26:17.339Z,15.65
2019-06-07T00:28:43.912Z,15.69
2019-06-07T00:31:14.940Z,15.74
2019-06-07T00:33:42.761Z,15.67
2019-06-07T00:36:14.571Z,15.61
2019-06-07T00:38:41.722Z,15.53
2019-06-07T00:41:10.358Z,15.64
2019-06-07T00:43:39.027Z,15.62
2019-06-07T00:46:07.584Z,15.62
2019-06-07T00:48:36.226Z,15.59
2019-06-07T00:51:04.898Z,15.43
2019-06-07T00:53:33.633Z,15.36
2019-06-07T00:56:02.277Z,15.32
2019-06-07T00:58:30.921Z,15.23
2019-06-07T01:00:59.571Z,15.35
2019-06-07T01:03:28.262Z,15.30
2019-06-07T01:05:56.896Z,15.32
2019-06-07T01:08:29.975Z,15.36
2019-06-07T01:10:55.888Z,15.32
2019-06-07T01:13:26.773Z,15.24
2019-06-07T01:15:54.836Z,15.11
2019-06-07T01:18:37.842Z,15.19
2019-06-07T01:20:53.871Z,15.21
2019-06-07T01:24:03.368Z,15.19
2019-06-07T01:25:52.787Z,15.12
2019-06-07T01:28:26.336Z,15.16
2019-06-07T01:30:52.548Z,15.09
2019-06-07T01:33:23.484Z,15.04
2019-06-07T01:35:51.653Z,15.04
2019-06-07T01:38:21.929Z,14.89
2019-06-07T01:40:50.534Z,14.83
2019-06-07T01:43:20.180Z,14.84
2019-06-07T01:45:49.511Z,14.83
2019-06-07T01:48:21.625Z,14.85
2019-06-07T01:50:48.474Z,14.89
2019-06-07T01:53:20.768Z,14.84
2019-06-07T01:55:47.367Z,14.81
2019-06-07T01:58:17.031Z,14.77
2019-06-07T02:00:46.630Z,14.73
2019-06-07T02:03:15.274Z,14.70
2019-06-07T02:05:43.843Z,14.70
2019-06-07T02:08:12.447Z,14.70
2019-06-07T02:10:41.025Z,14.82
2019-06-07T02:13:09.655Z,14.88
2019-06-07T02:15:38.194Z,14.91
2019-06-07T02:18:06.943Z,14.91
2019-06-07T02:20:35.526Z,14.74
2019-06-07T02:23:04.179Z,14.79
2019-06-07T02:25:43.827Z,14.71
2019-06-07T02:28:26.788Z,14.63
2019-06-07T02:30:46.031Z,14.62
2019-06-07T02:33:03.885Z,14.62
2019-06-07T02:35:39.027Z,14.45
2019-06-07T02:38:02.801Z,14.40
2019-06-07T02:40:36.395Z,14.34
2019-06-07T02:43:01.758Z,14.35
2019-06-07T02:45:42.037Z,14.33
2019-06-07T02:48:00.711Z,14.34
2019-06-07T02:50:35.361Z,14.33
2019-06-07T02:52:59.618Z,14.32
2019-06-07T02:55:33.213Z,14.37
2019-06-07T02:57:58.605Z,14.49
2019-06-07T03:01:07.569Z,14.59
2019-06-07T03:03:16.719Z,14.66
2019-06-07T03:05:46.378Z,14.80
2019-06-07T03:08:16.430Z,14.98
2019-06-07T03:10:49.765Z,15.15
2019-06-07T03:13:20.396Z,15.42
2019-06-07T03:15:55.901Z,15.77
2019-06-07T03:18:42.372Z,16.19
2019-06-07T03:21:12.676Z,16.55
2019-06-07T03:23:41.361Z,16.95
2019-06-07T03:26:10.010Z,17.42
2019-06-07T03:28:39.626Z,17.92
2019-06-07T03:31:08.325Z,18.39
2019-06-07T03:33:42.757Z,18.90
2019-06-07T03:36:23.511Z,19.50
2019-06-07T03:38:39.647Z,20.04
2019-06-07T03:41:07.829Z,20.45
2019-06-07T03:43:40.402Z,20.88
2019-06-07T03:46:06.789Z,21.56
2019-06-07T03:48:36.429Z,22.00
2019-06-07T03:51:23.607Z,22.41
2019-06-07T03:53:37.336Z,22.90
2019-06-07T03:56:06.622Z,23.48
2019-06-07T03:58:47.973Z,23.94
2019-06-07T04:01:05.539Z,24.24
2019-06-07T04:03:43.542Z,24.72
2019-06-07T04:06:04.495Z,25.72
2019-06-07T04:08:34.422Z,25.72
2019-06-07T04:11:03.344Z,26.06
2019-06-07T04:13:35.347Z,26.00
2019-06-07T04:16:04.011Z,25.84
2019-06-07T04:18:33.061Z,25.61
2019-06-07T04:21:02.321Z,25.59
2019-06-07T04:23:33.139Z,25.88
2019-06-07T04:26:01.166Z,25.93
2019-06-07T04:29:25.059Z,26.30
2019-06-07T04:31:00.556Z,26.84
2019-06-07T04:33:31.082Z,26.72
2019-06-07T04:36:00.050Z,27.16
2019-06-07T04:38:31.970Z,27.32
2019-06-07T04:41:01.036Z,28.22
2019-06-07T04:43:31.594Z,28.81
2019-06-07T04:46:02.623Z,28.83
2019-06-07T04:48:35.181Z,28.93
2019-06-07T04:51:04.859Z,29.05
2019-06-07T04:53:35.244Z,29.41
2019-06-07T04:56:03.984Z,29.17
2019-06-07T04:58:33.366Z,29.59
2019-06-07T05:01:03.753Z,29.26
2019-06-07T05:03:36.090Z,29.79
2019-06-07T05:06:02.875Z,29.82
2019-06-07T05:08:33.361Z,29.34
2019-06-07T05:11:01.820Z,29.02
2019-06-07T05:13:35.024Z,29.75
2019-06-07T05:16:00.795Z,30.13
2019-06-07T05:18:29.664Z,30.11
2019-06-07T05:20:59.229Z,30.58
2019-06-07T05:24:02.582Z,30.81
2019-06-07T05:25:58.457Z,30.51
2019-06-07T05:28:27.130Z,29.97
2019-06-07T05:31:04.575Z,30.09
2019-06-07T05:33:26.038Z,30.54
2019-06-07T05:35:54.698Z,31.34
2019-06-07T05:38:23.336Z,31.32
2019-06-07T05:40:51.971Z,30.57
2019-06-07T05:43:29.392Z,30.74
2019-06-07T05:45:57.960Z,30.51
2019-06-07T05:48:26.872Z,30.99
2019-06-07T05:50:57.319Z,31.21
2019-06-07T05:53:25.840Z,31.45
2019-06-07T05:55:54.513Z,32.11
2019-06-07T05:58:23.079Z,32.37
2019-06-07T06:00:51.698Z,32.94
2019-06-07T06:03:20.305Z,32.83
2019-06-07T06:05:54.838Z,32.81
2019-06-07T06:08:19.399Z,32.91
2019-06-07T06:10:48.986Z,33.54
2019-06-07T06:13:17.775Z,34.05
2019-06-07T06:16:00.479Z,33.26
2019-06-07T06:18:16.652Z,33.66
2019-06-07T06:21:09.660Z,33.81
2019-06-07T06:23:15.626Z,33.66
2019-06-07T06:25:52.439Z,33.88
2019-06-07T06:28:16.193Z,33.37
2019-06-07T06:30:47.962Z,33.25
2019-06-07T06:33:32.939Z,32.58
2019-06-07T06:35:50.487Z,31.86
2019-06-07T06:38:16.832Z,33.43
2019-06-07T06:40:48.940Z,33.15
2019-06-07T06:43:15.982Z,33.57
2019-06-07T06:45:49.773Z,34.23
2019-06-07T06:48:14.861Z,34.30
2019-06-07T06:50:44.447Z,34.05
2019-06-07T06:53:13.761Z,33.90
2019-06-07T06:55:43.939Z,33.85
2019-06-07T06:58:12.669Z,33.46
2019-06-07T07:01:06.050Z,33.14
2019-06-07T07:05:54.536Z,32.93
2019-06-07T07:08:22.895Z,33.57
2019-06-07T07:10:53.156Z,32.30
2019-06-07T07:13:21.855Z,32.41
2019-06-07T07:15:55.740Z,32.35
2019-06-07T07:18:20.827Z,33.14
2019-06-07T07:20:51.278Z,33.65
2019-06-07T07:23:19.703Z,33.40
2019-06-07T07:25:55.373Z,33.61
2019-06-07T07:28:18.487Z,32.34
2019-06-07T07:30:52.717Z,31.81
2019-06-07T07:33:19.946Z,31.93
2019-06-07T07:36:13.935Z,32.67
2019-06-07T07:38:19.046Z,32.93
2019-06-07T07:41:01.531Z,33.07
2019-06-07T07:43:17.958Z,32.83
2019-06-07T07:45:51.024Z,33.49
2019-06-07T07:48:18.559Z,33.31
2019-06-07T07:50:49.703Z,33.22
2019-06-07T07:53:17.442Z,33.59
2019-06-07T07:55:50.442Z,33.21
2019-06-07T07:58:16.240Z,33.17
2019-06-07T08:01:00.679Z,32.43
2019-06-07T08:03:15.027Z,32.80
2019-06-07T08:05:45.676Z,32.13
2019-06-07T08:08:13.834Z,32.55
2019-06-07T08:10:42.388Z,32.96
2019-06-07T08:13:27.601Z,32.77
2019-06-07T08:15:41.369Z,33.15
2019-06-07T08:18:10.021Z,33.38
2019-06-07T08:20:38.570Z,33.31
2019-06-07T08:23:07.170Z,33.82
2019-06-07T08:25:35.863Z,33.70
2019-06-07T08:28:04.539Z,33.40
2019-06-07T08:30:55.030Z,33.64
2019-06-07T08:33:24.585Z,32.90
2019-06-07T08:40:34.414Z,32.57
2019-06-07T08:43:18.191Z,32.80
2019-06-07T08:45:33.291Z,32.51
2019-06-07T08:48:09.463Z,32.68
2019-06-07T08:50:32.239Z,33.01
2019-06-07T08:53:11.057Z,34.02
2019-06-07T08:55:30.999Z,34.86
2019-06-07T08:58:04.568Z,34.96
2019-06-07T09:00:45.323Z,34.83
2019-06-07T09:03:06.470Z,34.13
2019-06-07T09:05:30.531Z,32.91
2019-06-07T09:08:21.680Z,32.32
2019-06-07T09:10:29.455Z,31.88
2019-06-07T09:13:03.160Z,31.35
2019-06-07T09:15:28.326Z,31.21
2019-06-07T09:18:34.764Z,31.12
2019-06-07T09:20:36.946Z,31.64
2019-06-07T09:23:11.437Z,30.86
2019-06-07T09:25:52.169Z,30.22
2019-06-07T09:28:13.469Z,30.10
2019-06-07T09:30:45.022Z,30.34
2019-06-07T09:33:14.019Z,29.78
2019-06-07T09:35:42.724Z,29.47
2019-06-07T09:38:24.109Z,29.29
2019-06-07T09:40:41.663Z,29.54
2019-06-07T09:45:40.565Z,29.87
2019-06-07T09:48:13.681Z,30.45
2019-06-07T09:50:39.674Z,30.70
2019-06-07T09:53:21.197Z,31.04
2019-06-07T09:55:38.687Z,31.33
2019-06-07T09:58:48.327Z,31.41
2019-06-07T10:00:41.484Z,31.53
2019-06-07T10:03:17.794Z,31.73
2019-06-07T10:05:38.382Z,31.44
2019-06-07T10:08:37.029Z,31.30
2019-06-07T10:10:37.303Z,31.64
2019-06-07T10:13:06.599Z,31.76
2019-06-07T10:15:36.305Z,31.05
2019-06-07T10:18:04.979Z,30.06
2019-06-07T10:20:33.533Z,29.80
2019-06-07T10:23:03.561Z,29.53
2019-06-07T10:25:32.373Z,29.63
2019-06-07T10:28:01.851Z,29.58
2019-06-07T10:30:30.477Z,29.87
2019-06-07T10:33:00.004Z,29.59
2019-06-07T10:35:29.197Z,28.85
2019-06-07T10:37:58.338Z,29.30
2019-06-07T10:40:26.935Z,29.33
2019-06-07T10:42:55.419Z,29.40
2019-06-07T10:45:23.922Z,29.29
2019-06-07T10:47:52.541Z,29.40
2019-06-07T10:50:21.569Z,28.98
2019-06-07T10:52:50.131Z,28.85
2019-06-07T10:55:18.860Z,28.89
2019-06-07T10:57:47.379Z,28.99
2019-06-07T11:00:16.500Z,29.20
2019-06-07T11:02:45.044Z,29.20
2019-06-07T11:05:14.431Z,29.11
2019-06-07T11:07:43.059Z,28.81
2019-06-07T11:10:18.848Z,28.68
2019-06-07T11:12:42.329Z,28.58
2019-06-07T11:15:12.829Z,28.67
2019-06-07T11:17:41.558Z,28.75
2019-06-07T11:20:12.306Z,28.81
2019-06-07T11:22:41.017Z,28.80
2019-06-07T11:25:11.167Z,28.99
2019-06-07T11:27:40.996Z,29.02
2019-06-07T11:30:10.536Z,29.26
2019-06-07T11:32:39.192Z,29.23
2019-06-07T11:35:11.671Z,29.61
2019-06-07T11:37:39.677Z,29.89
2019-06-07T11:40:27.928Z,30.07
2019-06-07T11:42:39.728Z,30.28
2019-06-07T11:45:10.503Z,30.08
2019-06-07T11:47:39.181Z,29.69
2019-06-07T11:50:09.442Z,29.57
2019-06-07T11:52:39.292Z,29.68
2019-06-07T11:55:09.019Z,30.08
2019-06-07T11:57:37.955Z,30.06
2019-06-07T12:00:11.437Z,30.03
2019-06-07T12:02:40.309Z,29.54
2019-06-07T12:05:12.641Z,29.46
2019-06-07T12:07:39.877Z,29.38
2019-06-07T12:10:10.642Z,29.53
2019-06-07T12:12:39.462Z,29.87
2019-06-07T12:15:08.918Z,29.84
2019-06-07T12:17:37.748Z,29.67
2019-06-07T12:20:08.782Z,29.61
2019-06-07T12:22:37.565Z,29.69
2019-06-07T12:25:07.510Z,29.77
2019-06-07T12:27:36.136Z,29.76
2019-06-07T12:30:15.441Z,29.62
2019-06-07T12:32:39.693Z,29.66
2019-06-07T12:35:08.630Z,29.42
2019-06-07T12:37:44.282Z,29.35
2019-06-07T12:40:10.106Z,29.65
2019-06-07T12:42:38.806Z,29.67
2019-06-07T12:45:08.142Z,29.90
2019-06-07T12:47:36.822Z,30.04
2019-06-07T12:50:08.979Z,30.16
2019-06-07T12:52:37.605Z,30.50
2019-06-07T12:55:07.818Z,30.41
2019-06-07T12:57:36.377Z,30.45
2019-06-07T13:00:10.089Z,30.86
2019-06-07T13:02:38.732Z,30.87
2019-06-07T13:05:08.159Z,30.91
2019-06-07T13:07:36.871Z,30.69
2019-06-07T13:10:10.317Z,30.40
2019-06-07T13:12:39.060Z,30.03
2019-06-07T13:15:08.412Z,29.56
2019-06-07T13:17:37.744Z,29.47
2019-06-07T13:20:08.381Z,29.63
2019-06-07T13:22:37.049Z,29.79
2019-06-07T13:25:07.969Z,29.86
2019-06-07T13:27:36.589Z,29.81
2019-06-07T13:30:10.719Z,30.00
2019-06-07T13:32:39.271Z,30.22
2019-06-07T13:35:08.511Z,30.21
2019-06-07T13:37:37.177Z,30.20
2019-06-07T13:40:06.928Z,30.22
2019-06-07T13:42:35.557Z,30.37
2019-06-07T13:45:06.065Z,30.16
2019-06-07T13:47:34.668Z,29.96
2019-06-07T13:50:04.569Z,29.78
2019-06-07T13:52:33.160Z,29.72
2019-06-07T13:55:02.510Z,29.65
2019-06-07T13:57:31.465Z,29.76
2019-06-07T14:00:00.140Z,29.66
2019-06-07T14:02:29.858Z,29.57
2019-06-07T14:04:58.402Z,29.57
2019-06-07T14:07:28.630Z,29.43
2019-06-07T14:09:57.547Z,29.50
2019-06-07T14:12:26.284Z,29.68
2019-06-07T14:14:55.145Z,29.97
2019-06-07T14:17:23.643Z,30.36
2019-06-07T14:19:52.199Z,30.68
2019-06-07T14:22:20.857Z,31.09
2019-06-07T14:24:49.487Z,31.09
2019-06-07T14:27:18.088Z,31.11
2019-06-07T14:29:47.468Z,31.09
2019-06-07T14:32:16.097Z,31.11
2019-06-07T14:34:44.662Z,31.17
2019-06-07T14:37:13.189Z,31.34
2019-06-07T14:39:41.734Z,31.58
2019-06-07T14:42:10.639Z,31.86
2019-06-07T14:44:39.297Z,31.88
2019-06-07T14:47:07.798Z,32.20
2019-06-07T14:49:36.399Z,31.77
2019-06-07T14:52:05.039Z,31.21
2019-06-07T14:54:37.013Z,30.66
2019-06-07T14:57:05.592Z,30.63
2019-06-07T14:59:34.880Z,30.72
2019-06-07T15:02:03.707Z,30.72
2019-06-07T15:04:32.885Z,30.91
2019-06-07T15:07:01.542Z,30.92
2019-06-07T15:09:31.024Z,31.02
2019-06-07T15:11:59.700Z,31.15
2019-06-07T15:14:29.328Z,31.04
2019-06-07T15:16:57.959Z,31.01
2019-06-07T15:19:26.796Z,30.84
2019-06-07T15:21:55.366Z,30.73
2019-06-07T15:24:23.992Z,30.44
2019-06-07T15:26:52.655Z,30.27
2019-06-07T15:29:21.277Z,30.26
2019-06-07T15:31:49.846Z,30.12
2019-06-07T15:34:18.490Z,29.74
2019-06-07T15:36:47.117Z,29.73
2019-06-07T15:39:15.748Z,29.56
2019-06-07T15:41:44.410Z,29.56
2019-06-07T15:44:13.043Z,29.36
2019-06-07T15:46:41.697Z,29.24
2019-06-07T15:49:10.315Z,29.15
2019-06-07T15:51:38.972Z,29.12
2019-06-07T15:54:07.993Z,29.18
2019-06-07T15:56:37.023Z,29.31
2019-06-07T15:59:05.637Z,29.33
2019-06-07T16:01:35.535Z,29.20
2019-06-07T16:04:05.056Z,28.88
2019-06-07T16:06:34.247Z,28.63
2019-06-07T16:09:02.923Z,28.11
2019-06-07T16:11:32.726Z,27.95
2019-06-07T16:14:01.514Z,28.01
2019-06-07T16:16:30.005Z,27.68
2019-06-07T16:18:58.897Z,27.50
2019-06-07T16:21:27.563Z,27.43
2019-06-07T16:23:56.189Z,27.26
2019-06-07T16:26:24.798Z,27.20
2019-06-07T16:28:53.434Z,27.16
2019-06-07T16:31:21.971Z,27.02
2019-06-07T16:33:50.529Z,26.94
2019-06-07T16:36:19.148Z,26.85
2019-06-07T16:38:48.643Z,26.74
2019-06-07T16:41:17.417Z,26.69
2019-06-07T16:43:45.911Z,26.74
2019-06-07T16:46:14.536Z,26.66
2019-06-07T16:48:43.198Z,26.68
2019-06-07T16:51:11.839Z,26.67
2019-06-07T16:53:40.480Z,26.62
2019-06-07T16:56:09.135Z,26.55
2019-06-07T16:58:37.917Z,26.54
2019-06-07T17:01:06.612Z,26.57
2019-06-07T17:03:35.251Z,26.42
2019-06-07T17:06:03.915Z,26.42
2019-06-07T17:08:32.546Z,26.48
2019-06-07T17:11:01.257Z,26.43
2019-06-07T17:13:33.594Z,26.43
2019-06-07T17:16:00.205Z,26.40
2019-06-07T17:18:28.878Z,26.32
2019-06-07T17:20:57.441Z,26.25
2019-06-07T17:23:26.026Z,26.29
2019-06-07T17:25:54.674Z,26.25
2019-06-07T17:28:23.306Z,26.24
2019-06-07T17:30:51.802Z,26.21
2019-06-07T17:33:20.397Z,26.11
2019-06-07T17:35:50.456Z,26.04
2019-06-07T17:38:19.126Z,25.99
2019-06-07T17:40:49.043Z,25.98
2019-06-07T17:43:17.820Z,25.90
2019-06-07T17:45:47.512Z,25.86
2019-06-07T17:48:16.168Z,25.86
2019-06-07T17:50:45.889Z,25.83
2019-06-07T17:53:14.503Z,25.70
2019-06-07T17:55:44.097Z,25.58
2019-06-07T17:58:12.736Z,25.46
2019-06-07T18:00:53.308Z,25.34
2019-06-07T18:03:21.892Z,25.26
2019-06-07T18:05:51.384Z,25.16
2019-06-07T18:08:20.071Z,25.11
2019-06-07T18:10:50.063Z,25.08
2019-06-07T18:13:18.726Z,24.91
2019-06-07T18:15:52.930Z,24.81
2019-06-07T18:18:18.664Z,24.67
2019-06-07T18:20:47.457Z,24.54
2019-06-07T18:23:16.162Z,24.51
2019-06-07T18:25:44.796Z,24.41
2019-06-07T18:28:13.549Z,24.37
2019-06-07T18:30:42.258Z,24.33
2019-06-07T18:33:10.808Z,24.34
2019-06-07T18:35:39.427Z,24.39
2019-06-07T18:38:10.777Z,24.40
2019-06-07T18:40:38.562Z,24.21
2019-06-07T18:43:07.120Z,24.11
2019-06-07T18:45:35.785Z,23.98
2019-06-07T18:48:04.725Z,23.81
2019-06-07T18:50:33.365Z,23.72
2019-06-07T18:53:01.911Z,23.53
2019-06-07T18:55:30.526Z,23.43
2019-06-07T18:57:59.091Z,23.31
2019-06-07T19:00:28.540Z,23.29
2019-06-07T19:02:58.152Z,23.12
2019-06-07T19:05:27.496Z,22.99
2019-06-07T19:07:56.732Z,22.95
2019-06-07T19:10:25.437Z,22.93
2019-06-07T19:12:55.268Z,22.86
2019-06-07T19:15:24.657Z,22.74
2019-06-07T19:17:54.070Z,22.64
2019-06-07T19:20:24.118Z,22.64
2019-06-07T19:22:54.143Z,22.54
2019-06-07T19:25:22.836Z,22.44
2019-06-07T19:27:52.742Z,22.37
2019-06-07T19:30:21.817Z,22.28
2019-06-07T19:32:51.435Z,22.23
2019-06-07T19:35:20.162Z,22.19
2019-06-07T19:37:48.828Z,22.09
2019-06-07T19:40:18.570Z,22.16
2019-06-07T19:42:47.125Z,22.05
2019-06-07T19:45:29.850Z,21.97
2019-06-07T19:47:46.381Z,21.96
2019-06-07T19:50:16.102Z,21.89
2019-06-07T19:52:44.626Z,21.98
2019-06-07T19:55:14.583Z,22.02
2019-06-07T19:57:43.193Z,21.95
2019-06-07T20:00:14.291Z,21.85
2019-06-07T20:02:42.523Z,21.81
2019-06-07T20:05:14.051Z,21.78
2019-06-07T20:07:42.720Z,21.74
2019-06-07T20:10:12.157Z,21.74
2019-06-07T20:12:40.790Z,21.71
2019-06-07T20:15:27.708Z,21.65
2019-06-07T20:17:40.947Z,21.56
2019-06-07T20:20:10.286Z,21.49
2019-06-07T20:22:38.953Z,21.40
2019-06-07T20:25:09.304Z,21.36
2019-06-07T20:27:38.001Z,21.30
2019-06-07T20:30:08.672Z,21.26
2019-06-07T20:32:37.243Z,21.19
2019-06-07T20:35:08.237Z,21.11
2019-06-07T20:37:37.117Z,21.08
2019-06-07T20:40:22.918Z,21.02
2019-06-07T20:45:08.214Z,20.90
2019-06-07T20:47:36.746Z,20.85
2019-06-07T20:50:09.046Z,20.88
2019-06-07T20:52:37.745Z,20.84
2019-06-07T20:55:09.738Z,20.71
2019-06-07T20:57:38.474Z,20.66
2019-06-07T21:00:16.703Z,20.61
2019-06-07T21:02:39.721Z,20.55
2019-06-07T21:05:09.922Z,20.50
2019-06-07T21:07:38.826Z,20.52
2019-06-07T21:10:10.856Z,20.43
2019-06-07T21:12:39.542Z,20.39
2019-06-07T21:15:11.757Z,20.29
2019-06-07T21:17:39.122Z,20.30
2019-06-07T21:20:11.864Z,20.28
2019-06-07T21:22:38.811Z,20.22
2019-06-07T21:25:11.519Z,20.26
2019-06-07T21:27:40.358Z,20.29
2019-06-07T21:30:09.821Z,20.29
2019-06-07T21:32:38.509Z,20.45
2019-06-07T21:35:10.002Z,20.52
2019-06-07T21:37:38.925Z,20.48
2019-06-07T21:40:10.333Z,20.43
2019-06-07T21:42:39.157Z,20.38
2019-06-07T21:45:09.624Z,20.30
2019-06-07T21:47:38.382Z,20.12
2019-06-07T21:50:10.591Z,20.17
2019-06-07T21:52:39.379Z,20.04
2019-06-07T21:55:09.210Z,20.02
2019-06-07T21:57:38.316Z,19.91
2019-06-07T22:00:11.656Z,19.84
2019-06-07T22:02:40.343Z,19.77
2019-06-07T22:05:09.612Z,19.75
2019-06-07T22:07:38.425Z,19.69
2019-06-07T22:10:08.034Z,19.73
2019-06-07T22:12:36.808Z,19.71
2019-06-07T22:15:24.594Z,19.64
2019-06-07T22:17:38.783Z,19.60
2019-06-07T22:20:09.055Z,19.63
2019-06-07T22:22:37.637Z,19.66
2019-06-07T22:25:07.516Z,19.67
2019-06-07T22:27:36.140Z,19.68
2019-06-07T22:30:08.276Z,19.74
2019-06-07T22:32:37.361Z,19.69
2019-06-07T22:35:06.918Z,19.69
2019-06-07T22:37:35.542Z,19.72
2019-06-07T22:40:08.527Z,19.71
2019-06-07T22:42:37.519Z,19.65
2019-06-07T22:45:07.955Z,19.50
2019-06-07T22:47:36.839Z,19.50
2019-06-07T22:50:10.683Z,19.46
2019-06-07T22:52:39.576Z,19.44
2019-06-07T22:55:10.176Z,19.37
2019-06-07T22:57:58.330Z,19.30
2019-06-07T23:00:28.794Z,19.28
2019-06-07T23:02:57.450Z,19.18
2019-06-07T23:05:26.137Z,19.14
2019-06-07T23:07:54.696Z,19.12
2019-06-07T23:10:23.346Z,19.13
2019-06-07T23:12:51.875Z,19.12
2019-06-07T23:15:20.967Z,19.06
2019-06-07T23:17:49.614Z,19.00
2019-06-07T23:20:20.016Z,19.00
2019-06-07T23:22:48.665Z,18.97
2019-06-07T23:25:21.884Z,19.01
2019-06-07T23:27:47.749Z,18.91
2019-06-07T23:30:16.998Z,18.94
2019-06-07T23:32:45.657Z,18.94
2019-06-07T23:35:14.829Z,18.83
2019-06-07T23:37:43.576Z,18.75
2019-06-07T23:40:14.897Z,18.67
2019-06-07T23:42:43.892Z,18.72
2019-06-07T23:45:13.806Z,18.69
2019-06-07T23:47:42.415Z,18.73
2019-06-07T23:50:11.573Z,18.72
2019-06-07T23:52:40.268Z,18.72
2019-06-07T23:55:09.018Z,18.58
2019-06-07T23:57:37.624Z,18.46
